Time;durP1;ratioP1;P1;durP2;ratioP2;P2;SDS_P1;SDS_P2;PMS_P1;PMS_P2;Temp;Humidity;BMP_temperature;BMP_pressure;BME280_temperature;BME280_humidity;BME280_pressure;Samples;Min_cycle;Max_cycle;Signal;HPM_P1;HPM_P2
2022/06/25 00:00:49;;;;;;;;;;;;;;;16.87;84.05;100339.11;1702961;84;20276;-54
2022/06/25 00:03:53;;;;;;;;;;;;;;;16.88;84.06;100335.30;1703052;84;20228;-54
2022/06/25 00:06:57;;;;;;;;;;;;;;;16.90;84.17;100335.08;1703004;84;20193;-55
2022/06/25 00:10:00;;;;;;;;;;;;;;;16.96;84.25;100341.11;1702850;84;20574;-56
2022/06/25 00:13:04;;;;;;;;;;;;;;;16.97;84.23;100338.13;1702932;84;20185;-55
2022/06/25 00:16:08;;;;;;;;;;;;;;;16.98;84.12;100341.75;1702875;84;20208;-54
2022/06/25 00:19:12;;;;;;;;;;;;;;;16.99;84.17;100340.67;1702877;84;20608;-54
2022/06/25 00:22:16;;;;;;;;;;;;;;;17.00;84.24;100335.48;1702935;84;20533;-55
2022/06/25 00:25:21;;;;;;;;;;;;;;;17.00;84.25;100340.45;1702958;83;20201;-56
2022/06/25 00:28:26;;;;;;;;;;;;;;;17.02;84.32;100336.95;1702873;84;20177;-54
2022/06/25 00:31:30;;;;;;;;;;;;;;;17.05;84.42;100331.50;1717423;82;20198;-55
2022/06/25 00:34:34;;;;;;;;;;;;;;;17.06;84.42;100332.66;1725871;83;20551;-54
2022/06/25 00:37:38;;;;;;;;;;;;;;;17.08;84.47;100333.82;1726328;83;20570;-54
2022/06/25 00:40:43;;;;;;;;;;;;;;;17.09;84.48;100332.77;1726579;82;20555;-55
2022/06/25 00:43:48;;;;;;;;;;;;;;;17.11;84.49;100334.80;1723720;82;20562;-54
2022/06/25 00:46:55;;;;;;;;;;;;;;;17.13;84.51;100336.27;1724076;82;20238;-54
2022/06/25 00:50:00;;;;;;;;;;;;;;;17.16;84.56;100340.49;1725997;83;20254;-53
2022/06/25 00:53:04;;;;;;;;;;;;;;;17.17;84.56;100340.83;1726690;82;20243;-54
2022/06/25 00:56:09;;;;;;;;;;;;;;;17.16;84.52;100334.95;1726038;83;20238;-55
2022/06/25 00:59:14;;;;;;;;;;;;;;;17.18;84.50;100339.75;1726062;83;20555;-55
2022/06/25 01:02:20;;;;;;;;;;;;;;;17.16;84.44;100338.59;1726718;82;20528;-55
2022/06/25 01:05:25;;;;;;;;;;;;;;;17.13;84.45;100338.17;1710906;83;20589;-55
2022/06/25 01:08:30;;;;;;;;;;;;;;;17.12;84.48;100335.09;1726266;82;20207;-56
2022/06/25 01:11:33;;;;;;;;;;;;;;;17.10;84.47;100340.85;1726259;82;20247;-55
2022/06/25 01:14:40;;;;;;;;;;;;;;;17.09;84.53;100336.92;1726498;82;20203;-54
2022/06/25 01:17:57;;;;;;;;;;;;;;;17.08;84.46;100346.27;1726755;82;20270;-55
2022/06/25 01:21:01;;;;;;;;;;;;;;;17.08;84.52;100347.12;1726070;83;20199;-55
2022/06/25 01:24:06;;;;;;;;;;;;;;;17.06;84.50;100348.42;1726753;82;20290;-54
2022/06/25 01:27:22;;;;;;;;;;;;;;;17.07;84.57;100345.45;1727212;82;20219;-54
2022/06/25 01:30:26;;;;;;;;;;;;;;;17.07;84.55;100343.20;1726290;82;20191;-55
2022/06/25 01:33:32;;;;;;;;;;;;;;;17.05;84.54;100339.27;1709321;83;20187;-55
2022/06/25 01:36:35;;;;;;;;;;;;;;;17.05;84.57;100343.42;1713321;84;20192;-54
2022/06/25 01:39:39;;;;;;;;;;;;;;;17.04;84.60;100336.72;1713283;84;20256;-54
2022/06/25 01:42:59;;;;;;;;;;;;;;;17.03;84.58;100344.72;1713413;84;20221;-55
2022/06/25 01:46:06;;;;;;;;;;;;;;;17.04;84.68;100339.49;1713385;84;20239;-55
2022/06/25 01:49:14;;;;;;;;;;;;;;;17.04;84.71;100347.79;1713330;84;20223;-55
2022/06/25 01:52:22;;;;;;;;;;;;;;;17.04;84.73;100356.09;1713268;84;20197;-55
2022/06/25 01:55:27;;;;;;;;;;;;;;;17.03;84.75;100351.08;1708950;84;20192;-55
2022/06/25 01:58:33;;;;;;;;;;;;;;;17.05;84.84;100357.77;1713325;84;20188;-55
2022/06/25 02:01:40;;;;;;;;;;;;;;;17.06;84.95;100360.32;1713297;84;20193;-55
2022/06/25 02:04:44;;;;;;;;;;;;;;;17.08;85.02;100364.25;1713427;84;20212;-55
2022/06/25 02:07:51;;;;;;;;;;;;;;;17.11;85.07;100366.61;1713416;84;20184;-55
2022/06/25 02:10:56;;;;;;;;;;;;;;;17.12;85.07;100372.44;1713285;84;20214;-54
2022/06/25 02:14:02;;;;;;;;;;;;;;;17.16;85.16;100373.69;1713417;84;20196;-55
2022/06/25 02:17:07;;;;;;;;;;;;;;;17.19;85.15;100374.63;1713327;84;20236;-54
2022/06/25 02:20:11;;;;;;;;;;;;;;;17.20;85.18;100375.83;1713267;82;20571;-55
2022/06/25 02:23:16;;;;;;;;;;;;;;;17.25;85.29;100380.70;1713305;84;20208;-55
2022/06/25 02:26:19;;;;;;;;;;;;;;;17.29;85.36;100385.58;1713381;84;20204;-55
2022/06/25 02:29:26;;;;;;;;;;;;;;;17.33;85.35;100377.13;1713420;82;20248;-55
2022/06/25 02:32:32;;;;;;;;;;;;;;;17.36;85.25;100382.78;1712017;81;20212;-55
2022/06/25 02:35:36;;;;;;;;;;;;;;;17.37;85.23;100380.31;1702876;84;20581;-55
2022/06/25 02:38:42;;;;;;;;;;;;;;;17.39;85.23;100379.57;1703867;83;20192;-54
2022/06/25 02:41:49;;;;;;;;;;;;;;;17.43;85.27;100376.66;1703035;84;20252;-55
2022/06/25 02:44:54;;;;;;;;;;;;;;;17.46;85.27;100381.27;1703010;84;20248;-55
2022/06/25 02:47:59;;;;;;;;;;;;;;;17.46;85.14;100391.48;1703090;84;20234;-55
2022/06/25 02:51:02;;;;;;;;;;;;;;;17.45;85.17;100382.87;1703002;84;20236;-55
2022/06/25 02:54:10;;;;;;;;;;;;;;;17.49;85.28;100393.28;1702942;84;20541;-54
2022/06/25 03:00:38;;;;;;;;;;;;;;;17.55;85.29;100400.69;1703009;84;20184;-55
2022/06/25 03:03:42;;;;;;;;;;;;;;;17.62;85.38;100402.05;1702904;84;20228;-56
2022/06/25 03:06:46;;;;;;;;;;;;;;;17.66;85.28;100400.55;1702972;84;20185;-55
2022/06/25 03:09:50;;;;;;;;;;;;;;;17.70;85.26;100407.33;1702909;84;20582;-55
2022/06/25 03:12:57;;;;;;;;;;;;;;;17.74;85.32;100414.14;1703008;84;20283;-55
2022/06/25 03:16:02;;;;;;;;;;;;;;;17.81;85.43;100417.70;1702962;84;20256;-54
2022/06/25 03:19:07;;;;;;;;;;;;;;;17.86;85.36;100424.82;1703025;84;20200;-55
2022/06/25 03:22:13;;;;;;;;;;;;;;;17.91;85.30;100434.70;1702924;84;20213;-55
2022/06/25 03:25:16;;;;;;;;;;;;;;;17.97;85.35;100435.19;1702946;84;20525;-55
2022/06/25 03:28:22;;;;;;;;;;;;;;;18.03;85.28;100428.75;1686743;84;20200;-55
2022/06/25 03:31:28;;;;;;;;;;;;;;;18.10;85.33;100431.48;1703053;84;20580;-54
2022/06/25 03:34:51;;;;;;;;;;;;;;;18.15;85.22;100433.05;1713849;83;20216;-55
2022/06/25 03:37:58;;;;;;;;;;;;;;;18.21;85.23;100421.93;1752090;80;20526;-55
2022/06/25 03:44:45;;;;;;;;;;;;;;;18.29;85.13;100431.36;1750168;82;20237;-55
2022/06/25 03:47:52;;;;;;;;;;;;;;;18.33;85.01;100431.20;1750137;82;20174;-56
2022/06/25 03:50:59;;;;;;;;;;;;;;;18.38;85.08;100434.72;1750133;82;20198;-55
2022/06/25 03:54:04;;;;;;;;;;;;;;;18.39;84.91;100435.05;1750158;82;20206;-56
2022/06/25 03:57:11;;;;;;;;;;;;;;;18.42;84.88;100439.61;1750133;82;20522;-56
2022/06/25 04:00:18;;;;;;;;;;;;;;;18.43;84.85;100439.05;1742084;81;20186;-55
2022/06/25 04:03:24;;;;;;;;;;;;;;;18.43;84.80;100432.12;1715809;83;20204;-55
2022/06/25 04:06:26;;;;;;;;;;;;;;;18.45;84.77;100440.55;1716956;83;20211;-55
2022/06/25 04:09:30;;;;;;;;;;;;;;;18.52;84.92;100444.09;1717110;83;20260;-55
2022/06/25 04:12:36;;;;;;;;;;;;;;;18.60;84.93;100446.59;1699076;83;20252;-56
2022/06/25 04:15:39;;;;;;;;;;;;;;;18.73;85.13;100449.26;1717235;83;20216;-55
2022/06/25 04:18:44;;;;;;;;;;;;;;;18.90;85.15;100454.53;1717711;83;20239;-55
2022/06/25 04:21:51;;;;;;;;;;;;;;;19.01;84.98;100462.11;1717198;83;20528;-55
2022/06/25 04:24:58;;;;;;;;;;;;;;;19.12;84.85;100464.69;1699405;83;20240;-55
2022/06/25 04:31:27;;;;;;;;;;;;;;;19.21;84.47;100461.38;1674669;85;20211;-55
2022/06/25 04:34:37;;;;;;;;;;;;;;;19.24;84.62;100469.25;1674729;83;20218;-55
2022/06/25 04:37:42;;;;;;;;;;;;;;;19.34;84.71;100470.96;1675003;85;20575;-55
2022/06/25 04:40:48;;;;;;;;;;;;;;;19.45;84.77;100474.06;1685341;85;20186;-55
2022/06/25 04:43:51;;;;;;;;;;;;;;;19.56;84.78;100465.82;1679832;85;20195;-55
2022/06/25 04:46:57;;;;;;;;;;;;;;;19.69;84.75;100466.20;1681795;85;20207;-55
2022/06/25 04:50:05;;;;;;;;;;;;;;;19.77;84.52;100468.13;1675509;85;20191;-55
2022/06/25 04:53:08;;;;;;;;;;;;;;;19.79;84.29;100469.28;1675238;86;20613;-56
2022/06/25 04:56:15;;;;;;;;;;;;;;;19.79;84.13;100476.23;1674901;86;20558;-55
2022/06/25 04:59:23;;;;;;;;;;;;;;;19.84;84.34;100480.52;1674889;86;20659;-54
2022/06/25 05:02:30;;;;;;;;;;;;;;;19.93;84.42;100485.52;1696194;82;20217;-55
2022/06/25 05:05:36;;;;;;;;;;;;;;;20.01;84.41;100478.81;1721922;82;20551;-55
2022/06/25 05:08:43;;;;;;;;;;;;;;;20.10;84.35;100474.61;1711010;81;20346;-55
2022/06/25 05:11:50;;;;;;;;;;;;;;;20.20;84.23;100476.33;1674607;85;20247;-54
2022/06/25 05:14:56;;;;;;;;;;;;;;;20.27;84.11;100481.23;1693334;82;20197;-56
2022/06/25 05:18:01;;;;;;;;;;;;;;;20.33;84.06;100481.67;1699654;82;20530;-55
2022/06/25 05:21:09;;;;;;;;;;;;;;;20.42;84.10;100494.18;1674413;84;20223;-55
2022/06/25 05:24:16;;;;;;;;;;;;;;;20.47;83.89;100497.10;1699600;82;20230;-55
2022/06/25 05:27:20;;;;;;;;;;;;;;;20.44;83.59;100499.80;1688296;84;20207;-54
2022/06/25 05:30:26;;;;;;;;;;;;;;;20.48;83.73;100493.22;1696579;82;20618;-55
2022/06/25 05:33:31;;;;;;;;;;;;;;;20.52;83.74;100488.34;1698656;82;20221;-56
2022/06/25 05:36:36;;;;;;;;;;;;;;;20.56;83.60;100493.75;1719675;80;20206;-55
2022/06/25 05:39:41;;;;;;;;;;;;;;;20.61;83.56;100494.41;1724265;83;20590;-55
2022/06/25 05:42:45;;;;;;;;;;;;;;;20.66;83.42;100500.12;1725022;83;20207;-55
2022/06/25 05:45:50;;;;;;;;;;;;;;;20.73;83.54;100490.56;1727938;82;20216;-55
2022/06/25 05:49:00;;;;;;;;;;;;;;;20.92;83.84;100498.80;1742674;82;20240;-55
2022/06/25 05:52:04;;;;;;;;;;;;;;;21.12;83.82;100503.53;1759710;80;20827;-55
2022/06/25 05:55:12;;;;;;;;;;;;;;;21.21;83.58;100509.90;1725971;82;20555;-55
2022/06/25 05:58:16;;;;;;;;;;;;;;;21.21;83.10;100504.33;1757024;80;20544;-55
2022/06/25 06:01:20;;;;;;;;;;;;;;;21.18;82.95;100510.39;1731328;82;20558;-54
2022/06/25 06:04:26;;;;;;;;;;;;;;;21.24;83.18;100505.77;1724755;82;20249;-54
2022/06/25 06:07:31;;;;;;;;;;;;;;;21.32;83.11;100503.48;1725263;83;20259;-55
2022/06/25 06:10:39;;;;;;;;;;;;;;;21.44;83.24;100504.30;1725137;83;20653;-55
2022/06/25 06:13:43;;;;;;;;;;;;;;;21.55;83.31;100500.66;1731387;80;20245;-54
2022/06/25 06:16:51;;;;;;;;;;;;;;;21.75;83.40;100505.34;1759052;80;20208;-54
2022/06/25 06:19:56;;;;;;;;;;;;;;;21.94;83.31;100504.09;1754837;82;20248;-54
2022/06/25 06:23:01;;;;;;;;;;;;;;;22.15;83.34;100508.14;1758224;80;20485;-55
2022/06/25 06:26:05;;;;;;;;;;;;;;;22.23;82.86;100500.77;1757514;79;20208;-55
2022/06/25 06:29:10;;;;;;;;;;;;;;;22.21;82.76;100505.17;1738353;82;20605;-55
2022/06/25 06:32:15;;;;;;;;;;;;;;;22.39;83.10;100502.73;1752216;80;20212;-56
2022/06/25 06:35:21;;;;;;;;;;;;;;;22.59;83.07;100509.30;1757619;80;20212;-54
2022/06/25 06:38:25;;;;;;;;;;;;;;;22.65;82.69;100507.74;1742418;80;20214;-55
2022/06/25 06:41:30;;;;;;;;;;;;;;;22.69;82.51;100500.55;1736768;81;20241;-54
2022/06/25 06:44:35;;;;;;;;;;;;;;;22.87;82.79;100507.84;1737072;80;20226;-56
2022/06/25 06:47:39;;;;;;;;;;;;;;;23.01;82.67;100511.98;1737186;82;20214;-56
2022/06/25 06:50:45;;;;;;;;;;;;;;;23.10;82.57;100509.09;1748103;80;20207;-56
2022/06/25 06:53:50;;;;;;;;;;;;;;;23.13;82.34;100512.77;1771592;80;20571;-55
2022/06/25 06:56:55;;;;;;;;;;;;;;;23.18;82.34;100518.44;1752069;80;20202;-56
2022/06/25 07:00:01;;;;;;;;;;;;;;;23.23;82.23;100519.92;1725584;80;20222;-56
2022/06/25 07:03:08;;;;;;;;;;;;;;;23.35;82.27;100510.92;1691224;83;20256;-55
2022/06/25 07:06:12;;;;;;;;;;;;;;;23.49;82.33;100517.84;1680977;84;20259;-56
2022/06/25 07:09:17;;;;;;;;;;;;;;;23.47;81.96;100513.05;1689012;82;20255;-57
2022/06/25 07:12:22;;;;;;;;;;;;;;;23.21;81.42;100506.75;1703984;82;20214;-55
2022/06/25 07:15:30;;;;;;;;;;;;;;;23.14;81.79;100512.52;1698597;83;20573;-56
2022/06/25 07:18:35;;;;;;;;;;;;;;;23.17;82.19;100507.80;1696982;82;20577;-56
2022/06/25 07:21:41;;;;;;;;;;;;;;;23.24;82.24;100513.22;1705396;82;20605;-56
2022/06/25 07:24:46;;;;;;;;;;;;;;;23.26;82.39;100506.88;1687687;85;20215;-56
2022/06/25 07:27:50;;;;;;;;;;;;;;;23.42;82.54;100506.84;1689903;83;20269;-57
2022/06/25 07:30:56;;;;;;;;;;;;;;;23.55;82.46;100509.81;1717215;83;20527;-55
2022/06/25 07:33:59;;;;;;;;;;;;;;;23.58;82.20;100516.28;1687589;85;20558;-55
2022/06/25 07:37:04;;;;;;;;;;;;;;;23.53;81.93;100525.45;1700506;83;20582;-56
2022/06/25 07:40:10;;;;;;;;;;;;;;;23.40;81.62;100522.18;1728999;80;20216;-56
2022/06/25 07:43:15;;;;;;;;;;;;;;;23.39;81.76;100524.12;1702082;82;20208;-56
2022/06/25 07:46:19;;;;;;;;;;;;;;;23.56;82.24;100516.55;1686565;82;20251;-56
2022/06/25 07:49:23;;;;;;;;;;;;;;;23.99;82.79;100517.73;1671742;86;20559;-57
2022/06/25 07:52:32;;;;;;;;;;;;;;;24.42;82.88;100510.72;1672544;84;20203;-56
2022/06/25 07:55:37;;;;;;;;;;;;;;;24.80;82.66;100514.21;1672156;84;20266;-55
2022/06/25 07:58:43;;;;;;;;;;;;;;;25.01;82.19;100522.25;1684556;84;20216;-55
2022/06/25 08:01:50;;;;;;;;;;;;;;;25.05;81.54;100526.22;1745606;80;20259;-56
2022/06/25 08:04:57;;;;;;;;;;;;;;;24.92;80.77;100528.05;1710320;84;20206;-55
2022/06/25 08:08:07;;;;;;;;;;;;;;;24.87;80.69;100523.80;1719774;81;20211;-57
2022/06/25 08:11:13;;;;;;;;;;;;;;;24.94;80.82;100527.24;1723717;80;20534;-55
2022/06/25 08:14:18;;;;;;;;;;;;;;;24.98;80.65;100529.24;1734607;81;20212;-55
2022/06/25 08:17:24;;;;;;;;;;;;;;;25.13;80.73;100531.88;1753264;79;20234;-57
2022/06/25 08:20:30;;;;;;;;;;;;;;;25.31;80.58;100537.09;1750638;80;20825;-55
2022/06/25 08:23:37;;;;;;;;;;;;;;;25.25;79.83;100532.53;1757078;80;20260;-55
2022/06/25 08:26:43;;;;;;;;;;;;;;;25.14;79.59;100529.36;1760910;80;20254;-54
2022/06/25 08:29:49;;;;;;;;;;;;;;;25.02;79.28;100535.98;1760196;80;20584;-55
2022/06/25 08:32:54;;;;;;;;;;;;;;;25.05;79.40;100540.23;1760227;80;20221;-55
2022/06/25 08:35:58;;;;;;;;;;;;;;;25.07;79.47;100538.56;1756459;80;20468;-55
2022/06/25 08:39:03;;;;;;;;;;;;;;;25.12;79.45;100537.21;1752700;80;20207;-55
2022/06/25 08:42:09;;;;;;;;;;;;;;;25.15;79.28;100539.48;1752120;81;20229;-56
2022/06/25 08:45:16;;;;;;;;;;;;;;;25.12;79.04;100544.22;1765470;80;20207;-55
2022/06/25 08:48:23;;;;;;;;;;;;;;;25.00;78.66;100549.44;1760045;80;20579;-55
2022/06/25 08:51:29;;;;;;;;;;;;;;;24.82;78.52;100555.41;1723421;83;20507;-55
2022/06/25 08:54:33;;;;;;;;;;;;;;;24.70;78.50;100553.34;1772762;80;20574;-55
2022/06/25 08:57:41;;;;;;;;;;;;;;;24.62;78.58;100552.37;1772899;80;20218;-55
2022/06/25 09:00:47;;;;;;;;;;;;;;;24.60;78.73;100555.98;1748414;80;20248;-54
2022/06/25 09:03:53;;;;;;;;;;;;;;;24.52;78.65;100557.85;1753622;82;20213;-55
2022/06/25 09:07:01;;;;;;;;;;;;;;;24.58;79.04;100553.99;1753875;82;20419;-56
2022/06/25 09:10:06;;;;;;;;;;;;;;;24.59;78.72;100551.47;1755362;82;20213;-56
2022/06/25 09:13:16;;;;;;;;;;;;;;;24.61;78.83;100545.06;1726509;81;20532;-55
2022/06/25 09:16:31;;;;;;;;;;;;;;;24.65;78.68;100539.25;1715320;83;20668;-56
2022/06/25 09:19:50;;;;;;;;;;;;;;;24.71;78.72;100545.22;1743618;80;20213;-55
2022/06/25 09:23:05;;;;;;;;;;;;;;;24.82;78.74;100539.16;1755039;81;20266;-56
2022/06/25 09:26:17;;;;;;;;;;;;;;;25.05;78.90;100532.65;1755414;81;20218;-56
2022/06/25 09:29:21;;;;;;;;;;;;;;;25.30;78.75;100525.57;1748896;82;20253;-54
2022/06/25 09:32:26;;;;;;;;;;;;;;;25.47;78.74;100527.69;1755204;81;20645;-55
2022/06/25 09:35:46;;;;;;;;;;;;;;;25.59;78.65;100532.55;1753158;80;20217;-55
2022/06/25 09:38:56;;;;;;;;;;;;;;;25.70;78.57;100532.36;1756051;80;20211;-54
2022/06/25 09:42:00;;;;;;;;;;;;;;;25.83;78.41;100536.63;1744994;80;20218;-55
2022/06/25 09:45:13;;;;;;;;;;;;;;;25.87;78.10;100536.36;1745199;80;20601;-55
2022/06/25 09:48:34;;;;;;;;;;;;;;;25.79;77.82;100542.48;1743473;82;20241;-55
2022/06/25 09:51:40;;;;;;;;;;;;;;;25.73;77.75;100535.16;1736431;80;20220;-55
2022/06/25 09:54:46;;;;;;;;;;;;;;;25.71;77.90;100538.23;1753003;80;20218;-55
2022/06/25 09:57:51;;;;;;;;;;;;;;;25.83;78.00;100540.84;1743942;80;20230;-55
2022/06/25 10:00:57;;;;;;;;;;;;;;;25.81;77.66;100536.05;1753552;80;20207;-54
2022/06/25 10:04:01;;;;;;;;;;;;;;;25.69;77.48;100542.45;1755338;80;20607;-54
2022/06/25 10:07:09;;;;;;;;;;;;;;;25.57;77.31;100530.56;1738493;80;20291;-55
2022/06/25 10:10:14;;;;;;;;;;;;;;;25.46;77.46;100540.02;1741112;79;20226;-54
2022/06/25 10:13:19;;;;;;;;;;;;;;;25.44;77.66;100545.05;1747898;80;20192;-55
2022/06/25 10:16:29;;;;;;;;;;;;;;;25.55;78.08;100544.00;1753909;80;20495;-54
2022/06/25 10:19:36;;;;;;;;;;;;;;;25.75;78.13;100543.58;1753258;80;20208;-54
2022/06/25 10:22:41;;;;;;;;;;;;;;;25.90;77.88;100540.02;1744897;80;20217;-54
2022/06/25 10:25:49;;;;;;;;;;;;;;;26.00;77.54;100535.91;1748095;80;20548;-55
2022/06/25 10:28:53;;;;;;;;;;;;;;;26.01;77.39;100524.96;1756295;80;20539;-54
2022/06/25 10:31:56;;;;;;;;;;;;;;;26.12;77.53;100535.11;1753622;80;20558;-54
2022/06/25 10:35:06;;;;;;;;;;;;;;;26.19;77.18;100535.72;1750020;80;20582;-53
2022/06/25 10:38:17;;;;;;;;;;;;;;;26.23;77.12;100529.28;1753498;80;20696;-53
2022/06/25 10:44:46;;;;;;;;;;;;;;;26.26;76.86;100540.50;1656498;85;20272;-53
2022/06/25 10:48:03;;;;;;;;;;;;;;;26.30;76.88;100534.09;1655933;87;20277;-54
2022/06/25 10:51:06;;;;;;;;;;;;;;;26.39;76.73;100534.38;1723894;83;20243;-54
2022/06/25 10:54:12;;;;;;;;;;;;;;;26.38;76.44;100534.11;1724098;83;20571;-54
2022/06/25 10:57:16;;;;;;;;;;;;;;;26.38;76.33;100542.53;1725506;83;20250;-54
2022/06/25 11:00:22;;;;;;;;;;;;;;;26.36;76.02;100537.20;1724496;83;20215;-54
2022/06/25 11:03:39;;;;;;;;;;;;;;;26.38;75.99;100537.77;1724248;83;20214;-54
2022/06/25 11:06:44;;;;;;;;;;;;;;;26.47;75.94;100543.67;1724374;82;20211;-54
2022/06/25 11:10:05;;;;;;;;;;;;;;;26.59;75.80;100542.03;1725214;82;20290;-54
2022/06/25 11:13:10;;;;;;;;;;;;;;;26.76;75.71;100551.95;1724099;83;20210;-53
2022/06/25 11:16:21;;;;;;;;;;;;;;;26.80;75.49;100537.61;1724672;83;20211;-53
2022/06/25 11:19:26;;;;;;;;;;;;;;;27.01;75.59;100545.50;1724649;83;20223;-54
2022/06/25 11:22:31;;;;;;;;;;;;;;;27.13;75.35;100546.09;1725030;82;20606;-54
2022/06/25 11:29:16;;;;;;;;;;;;;;;27.21;75.09;100546.94;1754345;79;20198;-54
2022/06/25 11:32:27;;;;;;;;;;;;;;;27.35;74.76;100529.23;1751513;80;20220;-55
2022/06/25 11:35:33;;;;;;;;;;;;;;;27.34;74.33;100536.55;1747915;81;20218;-54
2022/06/25 11:38:39;;;;;;;;;;;;;;;27.31;74.43;100537.97;1745291;82;20531;-54
2022/06/25 11:41:52;;;;;;;;;;;;;;;27.35;74.40;100533.45;1748290;80;20311;-54
2022/06/25 11:45:06;;;;;;;;;;;;;;;27.47;74.64;100535.43;1760394;80;20204;-54
2022/06/25 11:48:08;;;;;;;;;;;;;;;27.70;74.73;100530.59;1741868;80;20554;-55
2022/06/25 11:51:14;;;;;;;;;;;;;;;27.82;74.39;100529.74;1730959;80;20258;-55
2022/06/25 11:54:23;;;;;;;;;;;;;;;27.99;74.26;100529.42;1740568;80;20227;-56
2022/06/25 11:57:34;;;;;;;;;;;;;;;28.03;73.74;100531.96;1736092;80;20221;-55
2022/06/25 12:00:39;;;;;;;;;;;;;;;27.97;73.37;100528.89;1740861;82;20222;-55
2022/06/25 12:03:47;;;;;;;;;;;;;;;27.94;73.26;100537.06;1741720;82;20312;-55
2022/06/25 12:06:53;;;;;;;;;;;;;;;27.76;72.97;100542.14;1724503;82;20269;-55
2022/06/25 12:10:04;;;;;;;;;;;;;;;27.53;72.72;100542.73;1741147;82;20636;-55
2022/06/25 12:13:10;;;;;;;;;;;;;;;27.48;72.89;100555.39;1741857;82;20478;-55
2022/06/25 12:16:13;;;;;;;;;;;;;;;27.46;72.85;100546.38;1741501;82;20209;-54
2022/06/25 12:19:20;;;;;;;;;;;;;;;27.60;73.17;100547.52;1742001;82;20285;-55
2022/06/25 12:22:28;;;;;;;;;;;;;;;27.79;72.87;100551.42;1741930;82;20213;-54
2022/06/25 12:25:39;;;;;;;;;;;;;;;27.63;72.27;100540.47;1741968;82;20241;-55
2022/06/25 12:28:45;;;;;;;;;;;;;;;27.56;72.25;100536.53;1742572;82;20238;-54
2022/06/25 12:32:00;;;;;;;;;;;;;;;27.59;72.21;100533.73;1743062;82;20301;-54
2022/06/25 12:35:06;;;;;;;;;;;;;;;27.64;72.08;100531.73;1743193;82;20201;-55
2022/06/25 12:38:15;;;;;;;;;;;;;;;27.60;71.97;100523.60;1742669;82;20218;-55
2022/06/25 12:41:19;;;;;;;;;;;;;;;27.75;72.07;100533.95;1742635;82;20548;-54
2022/06/25 12:44:25;;;;;;;;;;;;;;;27.87;71.88;100533.09;1742064;81;20521;-54
2022/06/25 12:47:31;;;;;;;;;;;;;;;27.84;71.30;100530.27;1742714;82;20281;-55
2022/06/25 12:50:39;;;;;;;;;;;;;;;27.67;70.99;100529.77;1742562;82;20367;-55
2022/06/25 12:53:46;;;;;;;;;;;;;;;27.48;70.72;100528.66;1742837;82;20201;-54
2022/06/25 12:56:56;;;;;;;;;;;;;;;27.24;70.67;100528.11;1746255;82;20679;-55
2022/06/25 13:00:01;;;;;;;;;;;;;;;27.20;71.21;100513.77;1745898;82;20213;-54
2022/06/25 13:03:12;;;;;;;;;;;;;;;27.22;71.09;100506.45;1745369;82;20221;-55
2022/06/25 13:06:18;;;;;;;;;;;;;;;27.15;71.04;100508.13;1730180;82;20205;-54
2022/06/25 13:09:22;;;;;;;;;;;;;;;27.11;71.08;100512.65;1747222;82;20275;-55
2022/06/25 13:12:28;;;;;;;;;;;;;;;27.29;71.22;100516.89;1746908;82;20225;-54
2022/06/25 13:15:36;;;;;;;;;;;;;;;27.25;70.74;100508.69;1747213;82;20230;-54
2022/06/25 13:18:39;;;;;;;;;;;;;;;27.12;70.56;100511.52;1746801;82;20229;-54
2022/06/25 13:21:45;;;;;;;;;;;;;;;26.99;70.57;100520.49;1745995;82;20206;-55
2022/06/25 13:24:49;;;;;;;;;;;;;;;26.94;70.36;100515.45;1746997;82;20225;-55
2022/06/25 13:27:54;;;;;;;;;;;;;;;26.85;70.50;100527.79;1747617;80;20253;-55
2022/06/25 13:31:01;;;;;;;;;;;;;;;26.83;70.49;100520.19;1744175;81;20268;-54
2022/06/25 13:34:07;;;;;;;;;;;;;;;26.82;70.45;100521.87;1747001;82;20257;-54
2022/06/25 13:37:11;;;;;;;;;;;;;;;26.78;70.32;100508.97;1747068;82;20226;-57
2022/06/25 13:40:17;;;;;;;;;;;;;;;26.81;70.48;100507.01;1743372;82;20218;-55
2022/06/25 13:43:24;;;;;;;;;;;;;;;26.89;70.48;100511.22;1738674;82;20562;-55
2022/06/25 13:46:28;;;;;;;;;;;;;;;26.90;70.25;100513.75;1684811;85;20222;-54
2022/06/25 13:49:35;;;;;;;;;;;;;;;26.77;69.95;100509.22;1668560;85;20214;-55
2022/06/25 13:52:40;;;;;;;;;;;;;;;26.75;69.98;100512.31;1684612;85;20218;-54
2022/06/25 13:55:48;;;;;;;;;;;;;;;26.69;69.80;100519.05;1684641;85;20191;-54
2022/06/25 13:58:51;;;;;;;;;;;;;;;26.62;69.75;100519.86;1680279;84;20263;-54
2022/06/25 14:01:56;;;;;;;;;;;;;;;26.73;69.87;100517.94;1703576;82;20252;-55
2022/06/25 14:05:04;;;;;;;;;;;;;;;26.95;69.84;100512.91;1711159;82;20558;-55
2022/06/25 14:08:09;;;;;;;;;;;;;;;27.01;69.49;100513.19;1665396;83;20232;-55
2022/06/25 14:11:19;;;;;;;;;;;;;;;26.97;69.02;100512.07;1674375;83;20206;-53
2022/06/25 14:14:26;;;;;;;;;;;;;;;26.91;68.93;100518.23;1685401;84;20301;-54
2022/06/25 14:17:33;;;;;;;;;;;;;;;26.90;68.74;100519.38;1687983;82;20220;-54
2022/06/25 14:20:37;;;;;;;;;;;;;;;26.92;68.64;100525.56;1693864;82;20210;-54
2022/06/25 14:23:42;;;;;;;;;;;;;;;26.96;68.36;100524.41;1684163;85;20210;-54
2022/06/25 14:26:53;;;;;;;;;;;;;;;26.92;68.28;100526.97;1689572;82;20233;-55
2022/06/25 14:30:03;;;;;;;;;;;;;;;26.92;68.17;100522.75;1654997;85;20209;-53
2022/06/25 14:33:08;;;;;;;;;;;;;;;26.94;68.12;100527.51;1702789;82;20587;-54
2022/06/25 14:43:05;;;;;;;;;;;;;;;26.60;67.60;100526.31;1715018;84;20698;-54
2022/06/25 14:46:11;;;;;;;;;;;;;;;26.62;67.65;100531.09;1743662;81;20280;-55
2022/06/25 14:49:18;;;;;;;;;;;;;;;26.63;67.53;100522.95;1757447;81;20874;-54
2022/06/25 14:52:23;;;;;;;;;;;;;;;26.69;67.50;100519.63;1761230;81;20604;-54
2022/06/25 14:55:29;;;;;;;;;;;;;;;26.77;67.45;100521.31;1738445;81;20510;-55
2022/06/25 14:58:33;;;;;;;;;;;;;;;26.75;67.07;100523.55;1728479;83;20241;-55
2022/06/25 15:01:37;;;;;;;;;;;;;;;26.71;67.01;100523.84;1736323;82;20214;-54
2022/06/25 15:04:42;;;;;;;;;;;;;;;26.77;67.01;100519.91;1761116;81;20204;-54
2022/06/25 15:07:48;;;;;;;;;;;;;;;26.55;66.64;100527.70;1762473;81;20199;-54
2022/06/25 15:10:54;;;;;;;;;;;;;;;26.35;66.69;100522.03;1762258;81;20279;-54
2022/06/25 15:14:00;;;;;;;;;;;;;;;26.21;66.73;100526.48;1761906;81;20208;-55
2022/06/25 15:17:07;;;;;;;;;;;;;;;26.06;66.73;100526.39;1762264;81;20200;-54
2022/06/25 15:20:15;;;;;;;;;;;;;;;25.93;66.66;100525.45;1760325;81;20532;-54
2022/06/25 15:23:19;;;;;;;;;;;;;;;25.78;66.70;100513.58;1707259;83;20204;-55
2022/06/25 15:26:24;;;;;;;;;;;;;;;25.70;66.83;100520.28;1707577;83;20217;-55
2022/06/25 15:29:29;;;;;;;;;;;;;;;25.69;67.01;100517.20;1676805;83;20218;-54
2022/06/25 15:32:42;;;;;;;;;;;;;;;25.64;66.85;100518.57;1727384;83;20194;-55
2022/06/25 15:35:49;;;;;;;;;;;;;;;25.64;66.92;100518.57;1744249;81;20200;-53
2022/06/25 15:38:55;;;;;;;;;;;;;;;25.61;66.77;100518.53;1762363;81;20544;-54
2022/06/25 15:42:00;;;;;;;;;;;;;;;25.54;66.68;100532.52;1761825;81;20580;-53
2022/06/25 15:45:05;;;;;;;;;;;;;;;25.47;66.67;100529.08;1761762;81;20216;-54
2022/06/25 15:48:12;;;;;;;;;;;;;;;25.50;66.82;100526.59;1737986;81;20202;-54
2022/06/25 15:51:17;;;;;;;;;;;;;;;25.50;66.62;100536.98;1724219;82;20214;-55
2022/06/25 15:54:22;;;;;;;;;;;;;;;25.36;66.48;100537.13;1723761;82;20207;-54
2022/06/25 15:57:26;;;;;;;;;;;;;;;25.22;66.38;100540.94;1723691;83;20203;-54
2022/06/25 16:00:32;;;;;;;;;;;;;;;25.07;66.20;100545.56;1723620;81;20205;-56
2022/06/25 16:03:39;;;;;;;;;;;;;;;24.81;66.12;100542.53;1698499;83;20179;-55
2022/06/25 16:06:44;;;;;;;;;;;;;;;24.65;66.16;100546.25;1734535;81;20632;-55
2022/06/25 16:09:50;;;;;;;;;;;;;;;24.53;66.20;100550.31;1723689;81;20172;-54
2022/06/25 16:12:55;;;;;;;;;;;;;;;24.46;66.29;100547.72;1748610;81;20592;-53
2022/06/25 16:15:59;;;;;;;;;;;;;;;24.41;66.21;100549.05;1753120;82;20204;-54
2022/06/25 16:19:04;;;;;;;;;;;;;;;24.29;66.09;100542.73;1752760;82;20224;-54